sensor_id;sensor_type;location;lat;lon;timestamp;P1;durP1;ratioP1;P2;durP2;ratioP2
59786;SDS011;45672;51.612;5.536;2024-03-06T00:00:00;21.33;;;16.35;;
59786;SDS011;45672;51.612;5.536;2024-03-06T00:02:25;25.98;;;18.10;;
59786;SDS011;45672;51.612;5.536;2024-03-06T00:04:51;23.52;;;16.92;;
59786;SDS011;45672;51.612;5.536;2024-03-06T00:07:16;26.40;;;17.00;;
59786;SDS011;45672;51.612;5.536;2024-03-06T00:09:41;20.85;;;16.70;;
59786;SDS011;45672;51.612;5.536;2024-03-06T00:12:07;24.67;;;17.83;;
59786;SDS011;45672;51.612;5.536;2024-03-06T00:14:33;23.73;;;17.40;;
59786;SDS011;45672;51.612;5.536;2024-03-06T00:16:58;26.60;;;17.92;;
59786;SDS011;45672;51.612;5.536;2024-03-06T00:19:24;24.60;;;17.98;;
59786;SDS011;45672;51.612;5.536;2024-03-06T00:21:49;26.10;;;18.17;;
59786;SDS011;45672;51.612;5.536;2024-03-06T00:24:15;24.42;;;17.33;;
59786;SDS011;45672;51.612;5.536;2024-03-06T00:26:41;26.88;;;17.63;;
59786;SDS011;45672;51.612;5.536;2024-03-06T00:29:07;23.48;;;17.85;;
59786;SDS011;45672;51.612;5.536;2024-03-06T00:31:34;23.63;;;17.70;;
59786;SDS011;45672;51.612;5.536;2024-03-06T00:33:59;21.73;;;16.85;;
59786;SDS011;45672;51.612;5.536;2024-03-06T00:36:24;26.08;;;18.02;;
59786;SDS011;45672;51.612;5.536;2024-03-06T00:38:50;20.80;;;16.50;;
59786;SDS011;45672;51.612;5.536;2024-03-06T00:41:15;26.85;;;18.35;;
59786;SDS011;45672;51.612;5.536;2024-03-06T00:43:40;24.40;;;19.30;;
59786;SDS011;45672;51.612;5.536;2024-03-06T00:46:06;24.88;;;18.60;;
59786;SDS011;45672;51.612;5.536;2024-03-06T00:48:31;24.65;;;18.38;;
59786;SDS011;45672;51.612;5.536;2024-03-06T00:50:56;23.15;;;18.08;;
59786;SDS011;45672;51.612;5.536;2024-03-06T00:53:21;25.15;;;17.88;;
59786;SDS011;45672;51.612;5.536;2024-03-06T00:55:47;22.73;;;17.80;;
59786;SDS011;45672;51.612;5.536;2024-03-06T00:58:12;26.75;;;18.77;;
59786;SDS011;45672;51.612;5.536;2024-03-06T01:00:38;24.23;;;17.58;;
59786;SDS011;45672;51.612;5.536;2024-03-06T01:03:04;22.45;;;17.58;;
59786;SDS011;45672;51.612;5.536;2024-03-06T01:05:29;28.67;;;19.20;;
59786;SDS011;45672;51.612;5.536;2024-03-06T01:07:54;24.83;;;18.48;;
59786;SDS011;45672;51.612;5.536;2024-03-06T01:10:21;27.13;;;19.27;;
59786;SDS011;45672;51.612;5.536;2024-03-06T01:12:47;29.38;;;20.10;;
59786;SDS011;45672;51.612;5.536;2024-03-06T01:15:13;29.40;;;19.83;;
59786;SDS011;45672;51.612;5.536;2024-03-06T01:17:38;29.15;;;19.85;;
59786;SDS011;45672;51.612;5.536;2024-03-06T01:20:04;29.55;;;20.33;;
59786;SDS011;45672;51.612;5.536;2024-03-06T01:22:31;27.75;;;20.23;;
59786;SDS011;45672;51.612;5.536;2024-03-06T01:24:58;28.92;;;20.58;;
59786;SDS011;45672;51.612;5.536;2024-03-06T01:27:24;32.63;;;20.52;;
59786;SDS011;45672;51.612;5.536;2024-03-06T01:29:50;31.33;;;20.58;;
59786;SDS011;45672;51.612;5.536;2024-03-06T01:32:15;28.40;;;20.48;;
59786;SDS011;45672;51.612;5.536;2024-03-06T01:34:41;27.15;;;19.85;;
59786;SDS011;45672;51.612;5.536;2024-03-06T01:37:06;27.75;;;20.85;;
59786;SDS011;45672;51.612;5.536;2024-03-06T01:39:31;29.85;;;20.80;;
59786;SDS011;45672;51.612;5.536;2024-03-06T01:41:58;27.77;;;19.88;;
59786;SDS011;45672;51.612;5.536;2024-03-06T01:44:23;27.98;;;20.42;;
59786;SDS011;45672;51.612;5.536;2024-03-06T01:46:49;27.73;;;19.50;;
59786;SDS011;45672;51.612;5.536;2024-03-06T01:49:14;28.20;;;19.25;;
59786;SDS011;45672;51.612;5.536;2024-03-06T01:51:41;29.40;;;21.10;;
59786;SDS011;45672;51.612;5.536;2024-03-06T01:54:07;29.27;;;20.00;;
59786;SDS011;45672;51.612;5.536;2024-03-06T01:56:33;32.42;;;21.75;;
59786;SDS011;45672;51.612;5.536;2024-03-06T01:59:02;30.75;;;20.58;;
59786;SDS011;45672;51.612;5.536;2024-03-06T02:01:29;28.85;;;20.38;;
59786;SDS011;45672;51.612;5.536;2024-03-06T02:03:55;26.85;;;20.42;;
59786;SDS011;45672;51.612;5.536;2024-03-06T02:06:20;33.78;;;20.05;;
59786;SDS011;45672;51.612;5.536;2024-03-06T02:08:46;28.65;;;20.25;;
59786;SDS011;45672;51.612;5.536;2024-03-06T02:11:12;34.88;;;21.65;;
59786;SDS011;45672;51.612;5.536;2024-03-06T02:13:39;28.60;;;20.67;;
59786;SDS011;45672;51.612;5.536;2024-03-06T02:16:05;29.42;;;19.95;;
59786;SDS011;45672;51.612;5.536;2024-03-06T02:18:30;29.65;;;21.15;;
59786;SDS011;45672;51.612;5.536;2024-03-06T02:20:56;32.72;;;20.63;;
59786;SDS011;45672;51.612;5.536;2024-03-06T02:23:21;31.52;;;20.95;;
59786;SDS011;45672;51.612;5.536;2024-03-06T02:25:47;29.52;;;21.45;;
59786;SDS011;45672;51.612;5.536;2024-03-06T02:28:13;28.23;;;20.30;;
59786;SDS011;45672;51.612;5.536;2024-03-06T02:30:38;28.75;;;21.40;;
59786;SDS011;45672;51.612;5.536;2024-03-06T02:33:04;32.17;;;21.52;;
59786;SDS011;45672;51.612;5.536;2024-03-06T02:35:31;33.67;;;22.65;;
59786;SDS011;45672;51.612;5.536;2024-03-06T02:37:59;33.45;;;22.63;;
59786;SDS011;45672;51.612;5.536;2024-03-06T02:40:24;35.97;;;23.33;;
59786;SDS011;45672;51.612;5.536;2024-03-06T02:42:50;34.33;;;23.27;;
59786;SDS011;45672;51.612;5.536;2024-03-06T02:45:15;31.95;;;22.92;;
59786;SDS011;45672;51.612;5.536;2024-03-06T02:47:41;34.17;;;22.27;;
59786;SDS011;45672;51.612;5.536;2024-03-06T02:50:06;29.83;;;21.38;;
59786;SDS011;45672;51.612;5.536;2024-03-06T02:52:32;32.88;;;21.95;;
59786;SDS011;45672;51.612;5.536;2024-03-06T02:54:57;33.83;;;22.20;;
59786;SDS011;45672;51.612;5.536;2024-03-06T02:57:23;36.67;;;23.27;;
59786;SDS011;45672;51.612;5.536;2024-03-06T02:59:51;36.53;;;23.60;;
59786;SDS011;45672;51.612;5.536;2024-03-06T03:02:16;33.80;;;22.42;;
59786;SDS011;45672;51.612;5.536;2024-03-06T03:04:42;33.03;;;22.75;;
59786;SDS011;45672;51.612;5.536;2024-03-06T03:07:07;31.35;;;21.95;;
59786;SDS011;45672;51.612;5.536;2024-03-06T03:09:33;33.28;;;23.15;;
59786;SDS011;45672;51.612;5.536;2024-03-06T03:12:00;33.95;;;23.98;;
59786;SDS011;45672;51.612;5.536;2024-03-06T03:14:26;36.33;;;22.20;;
59786;SDS011;45672;51.612;5.536;2024-03-06T03:16:51;35.08;;;23.45;;
59786;SDS011;45672;51.612;5.536;2024-03-06T03:19:16;43.63;;;24.95;;
59786;SDS011;45672;51.612;5.536;2024-03-06T03:21:43;36.88;;;24.27;;
59786;SDS011;45672;51.612;5.536;2024-03-06T03:24:09;36.03;;;24.20;;
59786;SDS011;45672;51.612;5.536;2024-03-06T03:26:35;38.80;;;24.02;;
59786;SDS011;45672;51.612;5.536;2024-03-06T03:29:01;34.10;;;23.45;;
59786;SDS011;45672;51.612;5.536;2024-03-06T03:31:26;34.50;;;24.40;;
59786;SDS011;45672;51.612;5.536;2024-03-06T03:33:51;34.80;;;23.30;;
59786;SDS011;45672;51.612;5.536;2024-03-06T03:36:17;37.55;;;23.80;;
59786;SDS011;45672;51.612;5.536;2024-03-06T03:38:42;37.53;;;23.52;;
59786;SDS011;45672;51.612;5.536;2024-03-06T03:41:08;37.22;;;24.73;;
59786;SDS011;45672;51.612;5.536;2024-03-06T03:43:34;36.28;;;23.92;;
59786;SDS011;45672;51.612;5.536;2024-03-06T03:45:59;37.50;;;24.27;;
59786;SDS011;45672;51.612;5.536;2024-03-06T03:48:24;32.95;;;23.92;;
59786;SDS011;45672;51.612;5.536;2024-03-06T03:50:50;35.28;;;24.67;;
59786;SDS011;45672;51.612;5.536;2024-03-06T03:53:15;35.60;;;24.02;;
59786;SDS011;45672;51.612;5.536;2024-03-06T03:55:41;36.92;;;23.48;;
59786;SDS011;45672;51.612;5.536;2024-03-06T03:58:06;40.30;;;25.25;;
59786;SDS011;45672;51.612;5.536;2024-03-06T04:00:32;36.95;;;23.67;;
59786;SDS011;45672;51.612;5.536;2024-03-06T04:02:57;35.72;;;24.20;;
59786;SDS011;45672;51.612;5.536;2024-03-06T04:05:23;33.53;;;23.58;;
59786;SDS011;45672;51.612;5.536;2024-03-06T04:07:48;35.67;;;24.13;;
59786;SDS011;45672;51.612;5.536;2024-03-06T04:10:13;35.55;;;24.33;;
59786;SDS011;45672;51.612;5.536;2024-03-06T04:12:39;35.58;;;23.10;;
59786;SDS011;45672;51.612;5.536;2024-03-06T04:15:04;34.75;;;23.42;;
59786;SDS011;45672;51.612;5.536;2024-03-06T04:17:30;36.38;;;23.88;;
59786;SDS011;45672;51.612;5.536;2024-03-06T04:19:56;31.65;;;22.70;;
59786;SDS011;45672;51.612;5.536;2024-03-06T04:22:21;35.00;;;23.48;;
59786;SDS011;45672;51.612;5.536;2024-03-06T04:24:47;34.33;;;23.20;;
59786;SDS011;45672;51.612;5.536;2024-03-06T04:27:13;35.42;;;23.10;;
59786;SDS011;45672;51.612;5.536;2024-03-06T04:29:38;37.78;;;24.55;;
59786;SDS011;45672;51.612;5.536;2024-03-06T04:32:03;36.50;;;25.08;;
59786;SDS011;45672;51.612;5.536;2024-03-06T04:34:29;37.90;;;24.02;;
59786;SDS011;45672;51.612;5.536;2024-03-06T04:36:54;36.88;;;24.83;;
59786;SDS011;45672;51.612;5.536;2024-03-06T04:39:19;35.00;;;24.02;;
59786;SDS011;45672;51.612;5.536;2024-03-06T04:41:45;34.33;;;23.73;;
59786;SDS011;45672;51.612;5.536;2024-03-06T04:44:10;40.88;;;24.15;;
59786;SDS011;45672;51.612;5.536;2024-03-06T04:46:35;32.38;;;23.33;;
59786;SDS011;45672;51.612;5.536;2024-03-06T04:49:01;36.53;;;23.30;;
59786;SDS011;45672;51.612;5.536;2024-03-06T04:51:27;32.83;;;23.33;;
59786;SDS011;45672;51.612;5.536;2024-03-06T04:53:52;34.40;;;23.00;;
59786;SDS011;45672;51.612;5.536;2024-03-06T04:56:18;40.67;;;23.27;;
59786;SDS011;45672;51.612;5.536;2024-03-06T04:58:45;32.58;;;22.83;;
59786;SDS011;45672;51.612;5.536;2024-03-06T05:01:11;33.97;;;23.08;;
59786;SDS011;45672;51.612;5.536;2024-03-06T05:03:37;31.40;;;22.52;;
59786;SDS011;45672;51.612;5.536;2024-03-06T05:06:03;33.42;;;22.52;;
59786;SDS011;45672;51.612;5.536;2024-03-06T05:08:30;32.22;;;21.00;;
59786;SDS011;45672;51.612;5.536;2024-03-06T05:10:55;29.58;;;21.92;;
59786;SDS011;45672;51.612;5.536;2024-03-06T05:13:21;31.30;;;20.75;;
59786;SDS011;45672;51.612;5.536;2024-03-06T05:15:48;26.05;;;20.08;;
59786;SDS011;45672;51.612;5.536;2024-03-06T05:18:13;27.77;;;20.33;;
59786;SDS011;45672;51.612;5.536;2024-03-06T05:20:38;29.52;;;21.10;;
59786;SDS011;45672;51.612;5.536;2024-03-06T05:23:04;28.42;;;20.52;;
59786;SDS011;45672;51.612;5.536;2024-03-06T05:25:29;24.75;;;19.55;;
59786;SDS011;45672;51.612;5.536;2024-03-06T05:27:54;27.38;;;19.35;;
59786;SDS011;45672;51.612;5.536;2024-03-06T05:30:20;32.75;;;23.92;;
59786;SDS011;45672;51.612;5.536;2024-03-06T05:32:45;27.85;;;17.73;;
59786;SDS011;45672;51.612;5.536;2024-03-06T05:35:12;32.47;;;17.63;;
59786;SDS011;45672;51.612;5.536;2024-03-06T05:37:37;22.55;;;16.77;;
59786;SDS011;45672;51.612;5.536;2024-03-06T05:40:03;50.45;;;17.35;;
59786;SDS011;45672;51.612;5.536;2024-03-06T05:42:31;49.00;;;17.58;;
59786;SDS011;45672;51.612;5.536;2024-03-06T05:44:57;27.98;;;16.88;;
59786;SDS011;45672;51.612;5.536;2024-03-06T05:47:25;29.83;;;18.38;;
59786;SDS011;45672;51.612;5.536;2024-03-06T05:49:51;31.17;;;19.85;;
59786;SDS011;45672;51.612;5.536;2024-03-06T05:52:16;31.25;;;19.88;;
59786;SDS011;45672;51.612;5.536;2024-03-06T05:54:41;34.15;;;19.77;;
59786;SDS011;45672;51.612;5.536;2024-03-06T05:57:07;54.97;;;20.50;;
59786;SDS011;45672;51.612;5.536;2024-03-06T05:59:32;38.85;;;18.27;;
59786;SDS011;45672;51.612;5.536;2024-03-06T06:01:57;55.08;;;17.52;;
59786;SDS011;45672;51.612;5.536;2024-03-06T06:04:23;65.80;;;18.13;;
59786;SDS011;45672;51.612;5.536;2024-03-06T06:06:48;80.80;;;18.48;;
59786;SDS011;45672;51.612;5.536;2024-03-06T06:09:13;49.33;;;17.27;;
59786;SDS011;45672;51.612;5.536;2024-03-06T06:11:41;58.92;;;17.23;;
59786;SDS011;45672;51.612;5.536;2024-03-06T06:14:10;54.05;;;17.60;;
59786;SDS011;45672;51.612;5.536;2024-03-06T06:16:38;81.22;;;18.42;;
59786;SDS011;45672;51.612;5.536;2024-03-06T06:19:05;55.75;;;17.13;;
59786;SDS011;45672;51.612;5.536;2024-03-06T06:21:31;76.97;;;17.33;;
59786;SDS011;45672;51.612;5.536;2024-03-06T06:23:57;57.83;;;16.63;;
59786;SDS011;45672;51.612;5.536;2024-03-06T06:26:22;41.13;;;15.68;;
59786;SDS011;45672;51.612;5.536;2024-03-06T06:28:48;47.72;;;16.80;;
59786;SDS011;45672;51.612;5.536;2024-03-06T06:31:13;25.25;;;16.23;;
59786;SDS011;45672;51.612;5.536;2024-03-06T06:33:38;29.50;;;15.80;;
59786;SDS011;45672;51.612;5.536;2024-03-06T06:36:04;30.65;;;15.50;;
59786;SDS011;45672;51.612;5.536;2024-03-06T06:38:29;25.92;;;15.95;;
59786;SDS011;45672;51.612;5.536;2024-03-06T06:40:55;18.30;;;15.68;;
59786;SDS011;45672;51.612;5.536;2024-03-06T06:43:21;17.45;;;14.90;;
59786;SDS011;45672;51.612;5.536;2024-03-06T06:45:46;19.83;;;15.02;;
59786;SDS011;45672;51.612;5.536;2024-03-06T06:48:11;18.42;;;15.60;;
59786;SDS011;45672;51.612;5.536;2024-03-06T06:50:37;17.10;;;14.68;;
59786;SDS011;45672;51.612;5.536;2024-03-06T06:53:02;16.90;;;15.15;;
59786;SDS011;45672;51.612;5.536;2024-03-06T06:55:28;20.38;;;15.15;;
59786;SDS011;45672;51.612;5.536;2024-03-06T06:57:53;19.83;;;15.57;;
59786;SDS011;45672;51.612;5.536;2024-03-06T07:00:18;17.17;;;15.30;;
59786;SDS011;45672;51.612;5.536;2024-03-06T07:02:46;16.58;;;14.85;;
59786;SDS011;45672;51.612;5.536;2024-03-06T07:05:12;19.75;;;15.73;;
59786;SDS011;45672;51.612;5.536;2024-03-06T07:07:38;19.27;;;16.15;;
59786;SDS011;45672;51.612;5.536;2024-03-06T07:10:06;21.20;;;16.52;;
59786;SDS011;45672;51.612;5.536;2024-03-06T07:12:33;19.73;;;15.68;;
59786;SDS011;45672;51.612;5.536;2024-03-06T07:14:59;18.63;;;15.50;;
59786;SDS011;45672;51.612;5.536;2024-03-06T07:17:24;16.60;;;14.80;;
59786;SDS011;45672;51.612;5.536;2024-03-06T07:19:49;17.02;;;15.10;;
59786;SDS011;45672;51.612;5.536;2024-03-06T07:22:16;22.02;;;15.60;;
59786;SDS011;45672;51.612;5.536;2024-03-06T07:24:41;19.52;;;16.27;;
59786;SDS011;45672;51.612;5.536;2024-03-06T07:27:07;17.77;;;15.45;;
59786;SDS011;45672;51.612;5.536;2024-03-06T07:29:36;21.45;;;16.13;;
59786;SDS011;45672;51.612;5.536;2024-03-06T07:32:01;21.67;;;16.25;;
59786;SDS011;45672;51.612;5.536;2024-03-06T07:34:27;19.27;;;14.50;;
59786;SDS011;45672;51.612;5.536;2024-03-06T07:36:54;16.55;;;14.25;;
59786;SDS011;45672;51.612;5.536;2024-03-06T07:39:19;16.95;;;14.60;;
59786;SDS011;45672;51.612;5.536;2024-03-06T07:41:45;16.23;;;14.45;;
59786;SDS011;45672;51.612;5.536;2024-03-06T07:44:10;17.77;;;13.57;;
59786;SDS011;45672;51.612;5.536;2024-03-06T07:46:36;14.40;;;12.93;;
59786;SDS011;45672;51.612;5.536;2024-03-06T07:49:01;14.60;;;13.15;;
59786;SDS011;45672;51.612;5.536;2024-03-06T07:51:28;13.82;;;12.35;;
59786;SDS011;45672;51.612;5.536;2024-03-06T07:53:53;15.77;;;12.70;;
59786;SDS011;45672;51.612;5.536;2024-03-06T07:56:19;14.10;;;12.70;;
59786;SDS011;45672;51.612;5.536;2024-03-06T07:58:44;13.65;;;12.35;;
59786;SDS011;45672;51.612;5.536;2024-03-06T08:01:09;14.90;;;13.00;;
59786;SDS011;45672;51.612;5.536;2024-03-06T08:03:36;14.43;;;11.75;;
59786;SDS011;45672;51.612;5.536;2024-03-06T08:06:04;13.82;;;12.07;;
59786;SDS011;45672;51.612;5.536;2024-03-06T08:08:30;13.10;;;11.80;;
59786;SDS011;45672;51.612;5.536;2024-03-06T08:10:55;12.07;;;10.90;;
59786;SDS011;45672;51.612;5.536;2024-03-06T08:13:21;12.18;;;10.98;;
59786;SDS011;45672;51.612;5.536;2024-03-06T08:15:46;11.55;;;10.48;;
59786;SDS011;45672;51.612;5.536;2024-03-06T08:18:11;11.80;;;10.60;;
59786;SDS011;45672;51.612;5.536;2024-03-06T08:20:38;22.42;;;10.98;;
59786;SDS011;45672;51.612;5.536;2024-03-06T08:23:03;24.77;;;11.13;;
59786;SDS011;45672;51.612;5.536;2024-03-06T08:25:29;13.77;;;11.20;;
59786;SDS011;45672;51.612;5.536;2024-03-06T08:27:57;19.38;;;11.52;;
59786;SDS011;45672;51.612;5.536;2024-03-06T08:30:24;38.95;;;12.05;;
59786;SDS011;45672;51.612;5.536;2024-03-06T08:32:49;13.95;;;11.85;;
59786;SDS011;45672;51.612;5.536;2024-03-06T08:35:16;14.68;;;12.20;;
59786;SDS011;45672;51.612;5.536;2024-03-06T08:37:43;15.88;;;12.55;;
59786;SDS011;45672;51.612;5.536;2024-03-06T08:40:09;17.38;;;12.75;;
59786;SDS011;45672;51.612;5.536;2024-03-06T08:42:42;14.65;;;11.95;;
59786;SDS011;45672;51.612;5.536;2024-03-06T08:45:12;13.65;;;12.25;;
59786;SDS011;45672;51.612;5.536;2024-03-06T08:47:38;12.60;;;11.40;;
59786;SDS011;45672;51.612;5.536;2024-03-06T08:50:03;12.77;;;11.07;;
59786;SDS011;45672;51.612;5.536;2024-03-06T08:52:29;12.48;;;11.18;;
59786;SDS011;45672;51.612;5.536;2024-03-06T08:54:56;12.68;;;11.48;;
59786;SDS011;45672;51.612;5.536;2024-03-06T08:57:21;13.02;;;11.57;;
59786;SDS011;45672;51.612;5.536;2024-03-06T08:59:47;12.98;;;11.68;;
59786;SDS011;45672;51.612;5.536;2024-03-06T09:02:14;13.07;;;11.82;;
59786;SDS011;45672;51.612;5.536;2024-03-06T09:04:43;13.93;;;12.52;;
59786;SDS011;45672;51.612;5.536;2024-03-06T09:07:09;13.27;;;11.98;;
59786;SDS011;45672;51.612;5.536;2024-03-06T09:09:35;13.23;;;11.95;;
59786;SDS011;45672;51.612;5.536;2024-03-06T09:12:02;13.27;;;11.85;;
59786;SDS011;45672;51.612;5.536;2024-03-06T09:14:30;13.40;;;12.10;;
59786;SDS011;45672;51.612;5.536;2024-03-06T09:16:55;13.10;;;11.55;;
59786;SDS011;45672;51.612;5.536;2024-03-06T09:19:20;14.13;;;11.73;;
59786;SDS011;45672;51.612;5.536;2024-03-06T09:21:46;13.68;;;12.15;;
59786;SDS011;45672;51.612;5.536;2024-03-06T09:24:11;15.38;;;13.77;;
59786;SDS011;45672;51.612;5.536;2024-03-06T09:26:37;15.18;;;13.57;;
59786;SDS011;45672;51.612;5.536;2024-03-06T09:29:02;15.00;;;13.45;;
59786;SDS011;45672;51.612;5.536;2024-03-06T09:31:27;14.57;;;13.05;;
59786;SDS011;45672;51.612;5.536;2024-03-06T09:33:53;14.55;;;13.05;;
59786;SDS011;45672;51.612;5.536;2024-03-06T09:36:18;17.02;;;12.57;;
59786;SDS011;45672;51.612;5.536;2024-03-06T09:38:43;14.90;;;13.07;;
59786;SDS011;45672;51.612;5.536;2024-03-06T09:41:09;15.63;;;13.00;;
59786;SDS011;45672;51.612;5.536;2024-03-06T09:43:34;16.52;;;13.85;;
59786;SDS011;45672;51.612;5.536;2024-03-06T09:46:00;15.80;;;13.98;;
59786;SDS011;45672;51.612;5.536;2024-03-06T09:48:27;15.98;;;14.27;;
59786;SDS011;45672;51.612;5.536;2024-03-06T09:50:54;17.60;;;14.18;;
59786;SDS011;45672;51.612;5.536;2024-03-06T09:53:25;16.13;;;14.43;;
59786;SDS011;45672;51.612;5.536;2024-03-06T09:55:51;19.52;;;14.68;;
59786;SDS011;45672;51.612;5.536;2024-03-06T09:58:17;18.17;;;14.38;;
59786;SDS011;45672;51.612;5.536;2024-03-06T10:00:42;14.88;;;13.27;;
59786;SDS011;45672;51.612;5.536;2024-03-06T10:03:09;16.88;;;15.07;;
59786;SDS011;45672;51.612;5.536;2024-03-06T10:05:36;16.08;;;14.48;;
59786;SDS011;45672;51.612;5.536;2024-03-06T10:08:01;18.50;;;15.55;;
59786;SDS011;45672;51.612;5.536;2024-03-06T10:10:27;17.63;;;15.82;;
59786;SDS011;45672;51.612;5.536;2024-03-06T10:12:52;15.85;;;14.35;;
59786;SDS011;45672;51.612;5.536;2024-03-06T10:15:18;17.10;;;15.40;;
59786;SDS011;45672;51.612;5.536;2024-03-06T10:17:44;18.77;;;16.77;;
59786;SDS011;45672;51.612;5.536;2024-03-06T10:20:18;18.88;;;16.90;;
59786;SDS011;45672;51.612;5.536;2024-03-06T10:22:49;21.25;;;18.23;;
59786;SDS011;45672;51.612;5.536;2024-03-06T10:25:17;18.80;;;16.80;;
59786;SDS011;45672;51.612;5.536;2024-03-06T10:27:43;21.25;;;18.40;;
59786;SDS011;45672;51.612;5.536;2024-03-06T10:30:08;21.92;;;19.10;;
59786;SDS011;45672;51.612;5.536;2024-03-06T10:32:37;20.70;;;18.42;;
59786;SDS011;45672;51.612;5.536;2024-03-06T10:35:03;22.83;;;19.20;;
59786;SDS011;45672;51.612;5.536;2024-03-06T10:37:31;21.73;;;17.77;;
59786;SDS011;45672;51.612;5.536;2024-03-06T10:39:59;21.17;;;18.35;;
59786;SDS011;45672;51.612;5.536;2024-03-06T10:42:31;21.20;;;18.05;;
59786;SDS011;45672;51.612;5.536;2024-03-06T10:44:58;20.92;;;16.48;;
59786;SDS011;45672;51.612;5.536;2024-03-06T10:47:25;19.65;;;15.70;;
59786;SDS011;45672;51.612;5.536;2024-03-06T10:49:53;18.92;;;15.75;;
59786;SDS011;45672;51.612;5.536;2024-03-06T10:52:19;19.50;;;16.88;;
59786;SDS011;45672;51.612;5.536;2024-03-06T10:54:45;20.08;;;15.88;;
59786;SDS011;45672;51.612;5.536;2024-03-06T10:57:13;19.70;;;15.85;;
59786;SDS011;45672;51.612;5.536;2024-03-06T10:59:39;22.80;;;13.48;;
59786;SDS011;45672;51.612;5.536;2024-03-06T11:02:07;17.15;;;13.25;;
59786;SDS011;45672;51.612;5.536;2024-03-06T11:04:34;17.77;;;13.75;;
59786;SDS011;45672;51.612;5.536;2024-03-06T11:07:03;16.27;;;13.25;;
59786;SDS011;45672;51.612;5.536;2024-03-06T11:09:32;14.70;;;12.75;;
59786;SDS011;45672;51.612;5.536;2024-03-06T11:12:03;14.20;;;12.60;;
59786;SDS011;45672;51.612;5.536;2024-03-06T11:14:31;14.30;;;11.25;;
59786;SDS011;45672;51.612;5.536;2024-03-06T11:17:04;17.90;;;13.43;;
59786;SDS011;45672;51.612;5.536;2024-03-06T11:19:33;16.83;;;13.57;;
59786;SDS011;45672;51.612;5.536;2024-03-06T11:31:03;11.38;;;10.27;;
59786;SDS011;45672;51.612;5.536;2024-03-06T11:33:36;12.05;;;10.73;;
59786;SDS011;45672;51.612;5.536;2024-03-06T11:38:58;12.38;;;11.07;;
59786;SDS011;45672;51.612;5.536;2024-03-06T11:41:32;10.38;;;9.13;;
59786;SDS011;45672;51.612;5.536;2024-03-06T11:44:01;11.60;;;10.50;;
59786;SDS011;45672;51.612;5.536;2024-03-06T11:46:43;14.38;;;12.40;;
59786;SDS011;45672;51.612;5.536;2024-03-06T11:49:23;13.90;;;10.93;;
59786;SDS011;45672;51.612;5.536;2024-03-06T11:51:53;12.75;;;11.27;;
59786;SDS011;45672;51.612;5.536;2024-03-06T11:54:20;9.90;;;9.00;;
59786;SDS011;45672;51.612;5.536;2024-03-06T11:56:49;11.50;;;10.40;;
59786;SDS011;45672;51.612;5.536;2024-03-06T11:59:16;12.70;;;9.80;;
59786;SDS011;45672;51.612;5.536;2024-03-06T12:01:42;10.43;;;9.38;;
59786;SDS011;45672;51.612;5.536;2024-03-06T12:04:07;11.57;;;9.45;;
59786;SDS011;45672;51.612;5.536;2024-03-06T12:06:33;11.35;;;10.15;;
59786;SDS011;45672;51.612;5.536;2024-03-06T12:08:59;10.85;;;9.75;;
59786;SDS011;45672;51.612;5.536;2024-03-06T12:11:25;12.65;;;10.93;;
59786;SDS011;45672;51.612;5.536;2024-03-06T12:13:51;13.27;;;10.25;;
59786;SDS011;45672;51.612;5.536;2024-03-06T12:16:17;11.82;;;10.23;;
59786;SDS011;45672;51.612;5.536;2024-03-06T12:18:42;10.93;;;9.88;;
59786;SDS011;45672;51.612;5.536;2024-03-06T12:21:08;9.68;;;8.77;;
59786;SDS011;45672;51.612;5.536;2024-03-06T12:23:35;11.68;;;10.25;;
59786;SDS011;45672;51.612;5.536;2024-03-06T12:28:35;13.10;;;10.25;;
59786;SDS011;45672;51.612;5.536;2024-03-06T12:31:04;11.65;;;10.50;;
59786;SDS011;45672;51.612;5.536;2024-03-06T12:33:31;11.70;;;10.50;;
59786;SDS011;45672;51.612;5.536;2024-03-06T12:36:07;11.75;;;9.93;;
59786;SDS011;45672;51.612;5.536;2024-03-06T12:38:35;12.48;;;11.18;;
59786;SDS011;45672;51.612;5.536;2024-03-06T12:41:01;11.88;;;10.43;;
59786;SDS011;45672;51.612;5.536;2024-03-06T12:43:27;12.93;;;10.25;;
59786;SDS011;45672;51.612;5.536;2024-03-06T12:45:56;10.65;;;9.55;;
59786;SDS011;45672;51.612;5.536;2024-03-06T12:48:22;10.27;;;8.73;;
59786;SDS011;45672;51.612;5.536;2024-03-06T12:50:48;11.10;;;9.82;;
59786;SDS011;45672;51.612;5.536;2024-03-06T12:53:20;11.35;;;10.18;;
59786;SDS011;45672;51.612;5.536;2024-03-06T12:55:46;11.45;;;10.30;;
59786;SDS011;45672;51.612;5.536;2024-03-06T12:58:12;11.05;;;9.95;;
59786;SDS011;45672;51.612;5.536;2024-03-06T13:00:38;10.20;;;9.27;;
59786;SDS011;45672;51.612;5.536;2024-03-06T13:03:04;10.80;;;9.80;;
59786;SDS011;45672;51.612;5.536;2024-03-06T13:05:30;11.18;;;9.13;;
59786;SDS011;45672;51.612;5.536;2024-03-06T13:07:56;11.38;;;9.48;;
59786;SDS011;45672;51.612;5.536;2024-03-06T13:10:21;12.82;;;9.55;;
59786;SDS011;45672;51.612;5.536;2024-03-06T13:12:47;13.00;;;9.57;;
59786;SDS011;45672;51.612;5.536;2024-03-06T13:15:12;10.02;;;8.98;;
59786;SDS011;45672;51.612;5.536;2024-03-06T13:17:37;10.18;;;9.05;;
59786;SDS011;45672;51.612;5.536;2024-03-06T13:20:04;9.70;;;8.70;;
59786;SDS011;45672;51.612;5.536;2024-03-06T13:22:34;10.32;;;9.32;;
59786;SDS011;45672;51.612;5.536;2024-03-06T13:24:59;10.50;;;9.18;;
59786;SDS011;45672;51.612;5.536;2024-03-06T13:27:24;10.50;;;8.65;;
59786;SDS011;45672;51.612;5.536;2024-03-06T13:29:50;10.98;;;9.77;;
59786;SDS011;45672;51.612;5.536;2024-03-06T13:32:16;10.77;;;9.68;;
59786;SDS011;45672;51.612;5.536;2024-03-06T13:34:41;10.63;;;9.32;;
59786;SDS011;45672;51.612;5.536;2024-03-06T13:37:06;11.40;;;9.75;;
59786;SDS011;45672;51.612;5.536;2024-03-06T13:39:34;13.20;;;8.23;;
59786;SDS011;45672;51.612;5.536;2024-03-06T13:41:59;9.40;;;8.32;;
59786;SDS011;45672;51.612;5.536;2024-03-06T13:44:25;9.05;;;8.15;;
59786;SDS011;45672;51.612;5.536;2024-03-06T13:46:52;11.05;;;8.15;;
59786;SDS011;45672;51.612;5.536;2024-03-06T13:49:34;9.13;;;8.23;;
59786;SDS011;45672;51.612;5.536;2024-03-06T13:52:01;9.55;;;7.45;;
59786;SDS011;45672;51.612;5.536;2024-03-06T13:54:26;10.52;;;8.38;;
59786;SDS011;45672;51.612;5.536;2024-03-06T13:56:52;9.05;;;8.15;;
59786;SDS011;45672;51.612;5.536;2024-03-06T13:59:19;8.73;;;7.82;;
59786;SDS011;45672;51.612;5.536;2024-03-06T14:01:44;9.20;;;8.25;;
59786;SDS011;45672;51.612;5.536;2024-03-06T14:04:09;11.90;;;9.65;;
59786;SDS011;45672;51.612;5.536;2024-03-06T14:06:35;12.35;;;10.40;;
59786;SDS011;45672;51.612;5.536;2024-03-06T14:09:00;13.75;;;10.77;;
59786;SDS011;45672;51.612;5.536;2024-03-06T14:11:25;13.77;;;9.68;;
59786;SDS011;45672;51.612;5.536;2024-03-06T14:13:51;10.52;;;9.52;;
59786;SDS011;45672;51.612;5.536;2024-03-06T14:16:16;10.88;;;9.05;;
59786;SDS011;45672;51.612;5.536;2024-03-06T14:18:41;9.40;;;8.57;;
59786;SDS011;45672;51.612;5.536;2024-03-06T14:21:07;9.57;;;8.55;;
59786;SDS011;45672;51.612;5.536;2024-03-06T14:23:32;9.80;;;8.57;;
59786;SDS011;45672;51.612;5.536;2024-03-06T14:25:57;9.82;;;8.52;;
59786;SDS011;45672;51.612;5.536;2024-03-06T14:28:23;9.07;;;8.15;;
59786;SDS011;45672;51.612;5.536;2024-03-06T14:30:50;10.23;;;9.13;;